sensor_id;sensor_type;location;lat;lon;timestamp;P1;durP1;ratioP1;P2;durP2;ratioP2
84113;SDS011;74209;48.846;2.358;2023-11-21T00:01:57;0.82;;;0.70;;
84113;SDS011;74209;48.846;2.358;2023-11-21T00:04:23;0.57;;;0.57;;
84113;SDS011;74209;48.846;2.358;2023-11-21T00:06:49;0.60;;;0.60;;
84113;SDS011;74209;48.846;2.358;2023-11-21T00:09:15;0.60;;;0.60;;
84113;SDS011;74209;48.846;2.358;2023-11-21T00:11:42;0.80;;;0.70;;
84113;SDS011;74209;48.846;2.358;2023-11-21T00:14:09;0.60;;;0.60;;
84113;SDS011;74209;48.846;2.358;2023-11-21T00:16:35;1.05;;;0.70;;
84113;SDS011;74209;48.846;2.358;2023-11-21T00:19:01;0.85;;;0.68;;
84113;SDS011;74209;48.846;2.358;2023-11-21T00:21:27;1.63;;;0.80;;
84113;SDS011;74209;48.846;2.358;2023-11-21T00:23:52;0.70;;;0.70;;
84113;SDS011;74209;48.846;2.358;2023-11-21T00:26:18;0.63;;;0.63;;
84113;SDS011;74209;48.846;2.358;2023-11-21T00:28:43;0.60;;;0.60;;
84113;SDS011;74209;48.846;2.358;2023-11-21T00:31:10;0.65;;;0.65;;
84113;SDS011;74209;48.846;2.358;2023-11-21T00:33:36;0.65;;;0.60;;
84113;SDS011;74209;48.846;2.358;2023-11-21T00:36:01;0.77;;;0.75;;
84113;SDS011;74209;48.846;2.358;2023-11-21T00:38:27;0.65;;;0.65;;
84113;SDS011;74209;48.846;2.358;2023-11-21T00:40:53;0.60;;;0.60;;
84113;SDS011;74209;48.846;2.358;2023-11-21T00:43:21;0.50;;;0.50;;
84113;SDS011;74209;48.846;2.358;2023-11-21T00:45:48;0.82;;;0.73;;
84113;SDS011;74209;48.846;2.358;2023-11-21T00:48:14;0.93;;;0.80;;
84113;SDS011;74209;48.846;2.358;2023-11-21T00:50:40;1.48;;;0.73;;
84113;SDS011;74209;48.846;2.358;2023-11-21T00:53:06;0.65;;;0.65;;
84113;SDS011;74209;48.846;2.358;2023-11-21T00:55:32;0.70;;;0.60;;
84113;SDS011;74209;48.846;2.358;2023-11-21T00:57:58;0.60;;;0.60;;
84113;SDS011;74209;48.846;2.358;2023-11-21T01:00:24;0.63;;;0.60;;
84113;SDS011;74209;48.846;2.358;2023-11-21T01:02:50;0.73;;;0.73;;
84113;SDS011;74209;48.846;2.358;2023-11-21T01:05:16;0.65;;;0.65;;
84113;SDS011;74209;48.846;2.358;2023-11-21T01:07:42;0.82;;;0.63;;
84113;SDS011;74209;48.846;2.358;2023-11-21T01:10:08;0.57;;;0.57;;
84113;SDS011;74209;48.846;2.358;2023-11-21T01:12:35;0.60;;;0.60;;
84113;SDS011;74209;48.846;2.358;2023-11-21T01:15:05;0.60;;;0.60;;
84113;SDS011;74209;48.846;2.358;2023-11-21T01:17:34;0.80;;;0.80;;
84113;SDS011;74209;48.846;2.358;2023-11-21T01:20:03;0.80;;;0.70;;
84113;SDS011;74209;48.846;2.358;2023-11-21T01:22:36;0.70;;;0.70;;
84113;SDS011;74209;48.846;2.358;2023-11-21T01:25:02;0.60;;;0.60;;
84113;SDS011;74209;48.846;2.358;2023-11-21T01:27:32;0.70;;;0.70;;
84113;SDS011;74209;48.846;2.358;2023-11-21T01:29:58;1.33;;;0.80;;
84113;SDS011;74209;48.846;2.358;2023-11-21T01:32:23;0.55;;;0.55;;
84113;SDS011;74209;48.846;2.358;2023-11-21T01:34:50;0.70;;;0.70;;
84113;SDS011;74209;48.846;2.358;2023-11-21T01:37:16;0.65;;;0.60;;
84113;SDS011;74209;48.846;2.358;2023-11-21T01:39:42;0.80;;;0.70;;
84113;SDS011;74209;48.846;2.358;2023-11-21T01:42:09;0.52;;;0.52;;
84113;SDS011;74209;48.846;2.358;2023-11-21T01:44:34;0.73;;;0.73;;
84113;SDS011;74209;48.846;2.358;2023-11-21T01:47:00;0.57;;;0.57;;
84113;SDS011;74209;48.846;2.358;2023-11-21T01:49:30;0.93;;;0.80;;
84113;SDS011;74209;48.846;2.358;2023-11-21T01:51:59;0.95;;;0.68;;
84113;SDS011;74209;48.846;2.358;2023-11-21T01:54:27;0.70;;;0.60;;
84113;SDS011;74209;48.846;2.358;2023-11-21T01:56:56;0.55;;;0.55;;
84113;SDS011;74209;48.846;2.358;2023-11-21T01:59:27;0.60;;;0.60;;
84113;SDS011;74209;48.846;2.358;2023-11-21T02:01:56;0.73;;;0.70;;
84113;SDS011;74209;48.846;2.358;2023-11-21T02:04:22;0.70;;;0.70;;
84113;SDS011;74209;48.846;2.358;2023-11-21T02:06:47;0.77;;;0.68;;
84113;SDS011;74209;48.846;2.358;2023-11-21T02:09:13;0.60;;;0.60;;
84113;SDS011;74209;48.846;2.358;2023-11-21T02:11:40;0.75;;;0.70;;
84113;SDS011;74209;48.846;2.358;2023-11-21T02:14:06;0.65;;;0.65;;
84113;SDS011;74209;48.846;2.358;2023-11-21T02:16:34;0.77;;;0.77;;
84113;SDS011;74209;48.846;2.358;2023-11-21T02:19:00;0.60;;;0.60;;
84113;SDS011;74209;48.846;2.358;2023-11-21T02:21:28;0.63;;;0.60;;
84113;SDS011;74209;48.846;2.358;2023-11-21T02:23:55;0.70;;;0.65;;
84113;SDS011;74209;48.846;2.358;2023-11-21T02:26:21;0.90;;;0.65;;
84113;SDS011;74209;48.846;2.358;2023-11-21T02:28:46;0.75;;;0.60;;
84113;SDS011;74209;48.846;2.358;2023-11-21T02:31:12;0.77;;;0.75;;
84113;SDS011;74209;48.846;2.358;2023-11-21T02:33:38;0.63;;;0.60;;
84113;SDS011;74209;48.846;2.358;2023-11-21T02:36:04;0.55;;;0.55;;
84113;SDS011;74209;48.846;2.358;2023-11-21T02:38:30;0.70;;;0.70;;
84113;SDS011;74209;48.846;2.358;2023-11-21T02:40:57;1.10;;;0.90;;
84113;SDS011;74209;48.846;2.358;2023-11-21T02:43:24;0.77;;;0.70;;
84113;SDS011;74209;48.846;2.358;2023-11-21T02:45:49;0.70;;;0.70;;
84113;SDS011;74209;48.846;2.358;2023-11-21T02:48:15;0.60;;;0.60;;
84113;SDS011;74209;48.846;2.358;2023-11-21T02:50:41;0.50;;;0.50;;
84113;SDS011;74209;48.846;2.358;2023-11-21T02:53:08;0.50;;;0.50;;
84113;SDS011;74209;48.846;2.358;2023-11-21T02:55:35;0.65;;;0.65;;
84113;SDS011;74209;48.846;2.358;2023-11-21T02:58:02;0.77;;;0.70;;
84113;SDS011;74209;48.846;2.358;2023-11-21T03:00:31;1.27;;;0.77;;
84113;SDS011;74209;48.846;2.358;2023-11-21T03:02:56;0.93;;;0.60;;
84113;SDS011;74209;48.846;2.358;2023-11-21T03:05:22;0.70;;;0.70;;
84113;SDS011;74209;48.846;2.358;2023-11-21T03:07:48;0.60;;;0.60;;
84113;SDS011;74209;48.846;2.358;2023-11-21T03:10:13;0.80;;;0.70;;
84113;SDS011;74209;48.846;2.358;2023-11-21T03:12:39;0.60;;;0.60;;
84113;SDS011;74209;48.846;2.358;2023-11-21T03:15:05;0.70;;;0.60;;
84113;SDS011;74209;48.846;2.358;2023-11-21T03:17:32;0.60;;;0.52;;
84113;SDS011;74209;48.846;2.358;2023-11-21T03:19:59;0.70;;;0.65;;
84113;SDS011;74209;48.846;2.358;2023-11-21T03:22:25;0.60;;;0.60;;
84113;SDS011;74209;48.846;2.358;2023-11-21T03:24:51;0.95;;;0.68;;
84113;SDS011;74209;48.846;2.358;2023-11-21T03:27:17;0.60;;;0.60;;
84113;SDS011;74209;48.846;2.358;2023-11-21T03:29:44;0.60;;;0.60;;
84113;SDS011;74209;48.846;2.358;2023-11-21T03:32:11;0.50;;;0.50;;
84113;SDS011;74209;48.846;2.358;2023-11-21T03:34:41;0.50;;;0.50;;
84113;SDS011;74209;48.846;2.358;2023-11-21T03:37:22;0.50;;;0.50;;
84113;SDS011;74209;48.846;2.358;2023-11-21T03:39:48;0.50;;;0.50;;
84113;SDS011;74209;48.846;2.358;2023-11-21T03:42:14;0.70;;;0.60;;
84113;SDS011;74209;48.846;2.358;2023-11-21T03:44:40;0.73;;;0.73;;
84113;SDS011;74209;48.846;2.358;2023-11-21T03:47:05;1.13;;;0.70;;
84113;SDS011;74209;48.846;2.358;2023-11-21T03:49:31;0.70;;;0.70;;
84113;SDS011;74209;48.846;2.358;2023-11-21T03:51:56;0.50;;;0.50;;
84113;SDS011;74209;48.846;2.358;2023-11-21T03:54:22;0.68;;;0.60;;
84113;SDS011;74209;48.846;2.358;2023-11-21T03:56:47;0.50;;;0.50;;
84113;SDS011;74209;48.846;2.358;2023-11-21T03:59:14;0.80;;;0.65;;
84113;SDS011;74209;48.846;2.358;2023-11-21T04:01:39;0.60;;;0.55;;
84113;SDS011;74209;48.846;2.358;2023-11-21T04:04:05;0.95;;;0.80;;
84113;SDS011;74209;48.846;2.358;2023-11-21T04:06:30;0.52;;;0.52;;
84113;SDS011;74209;48.846;2.358;2023-11-21T04:08:57;0.57;;;0.52;;
84113;SDS011;74209;48.846;2.358;2023-11-21T04:11:23;0.60;;;0.60;;
84113;SDS011;74209;48.846;2.358;2023-11-21T04:13:49;0.60;;;0.60;;
84113;SDS011;74209;48.846;2.358;2023-11-21T04:16:15;0.60;;;0.60;;
84113;SDS011;74209;48.846;2.358;2023-11-21T04:18:40;0.57;;;0.57;;
84113;SDS011;74209;48.846;2.358;2023-11-21T04:21:06;0.50;;;0.50;;
84113;SDS011;74209;48.846;2.358;2023-11-21T04:23:32;0.57;;;0.57;;
84113;SDS011;74209;48.846;2.358;2023-11-21T04:25:58;0.50;;;0.50;;
84113;SDS011;74209;48.846;2.358;2023-11-21T04:28:24;0.80;;;0.70;;
84113;SDS011;74209;48.846;2.358;2023-11-21T04:30:50;0.73;;;0.60;;
84113;SDS011;74209;48.846;2.358;2023-11-21T04:33:15;0.50;;;0.50;;
84113;SDS011;74209;48.846;2.358;2023-11-21T04:35:41;0.43;;;0.43;;
84113;SDS011;74209;48.846;2.358;2023-11-21T04:38:07;0.98;;;0.60;;
84113;SDS011;74209;48.846;2.358;2023-11-21T04:40:32;0.57;;;0.57;;
84113;SDS011;74209;48.846;2.358;2023-11-21T04:42:58;0.70;;;0.60;;
84113;SDS011;74209;48.846;2.358;2023-11-21T04:45:24;0.80;;;0.80;;
84113;SDS011;74209;48.846;2.358;2023-11-21T04:47:49;0.80;;;0.60;;
84113;SDS011;74209;48.846;2.358;2023-11-21T04:50:15;0.60;;;0.60;;
84113;SDS011;74209;48.846;2.358;2023-11-21T04:52:41;0.60;;;0.60;;
84113;SDS011;74209;48.846;2.358;2023-11-21T04:55:06;0.57;;;0.57;;
84113;SDS011;74209;48.846;2.358;2023-11-21T04:57:35;0.60;;;0.60;;
84113;SDS011;74209;48.846;2.358;2023-11-21T05:00:01;0.57;;;0.57;;
84113;SDS011;74209;48.846;2.358;2023-11-21T05:02:30;0.60;;;0.60;;
84113;SDS011;74209;48.846;2.358;2023-11-21T05:04:56;0.60;;;0.60;;
84113;SDS011;74209;48.846;2.358;2023-11-21T05:07:23;0.55;;;0.55;;
84113;SDS011;74209;48.846;2.358;2023-11-21T05:09:48;0.63;;;0.63;;
84113;SDS011;74209;48.846;2.358;2023-11-21T05:12:15;0.43;;;0.43;;
84113;SDS011;74209;48.846;2.358;2023-11-21T05:14:40;0.68;;;0.68;;
84113;SDS011;74209;48.846;2.358;2023-11-21T05:17:07;0.50;;;0.50;;
84113;SDS011;74209;48.846;2.358;2023-11-21T05:19:33;0.50;;;0.50;;
84113;SDS011;74209;48.846;2.358;2023-11-21T05:22:00;0.65;;;0.55;;
84113;SDS011;74209;48.846;2.358;2023-11-21T05:24:26;0.55;;;0.55;;
84113;SDS011;74209;48.846;2.358;2023-11-21T05:26:51;0.75;;;0.50;;
84113;SDS011;74209;48.846;2.358;2023-11-21T05:29:17;0.60;;;0.60;;
84113;SDS011;74209;48.846;2.358;2023-11-21T05:31:43;0.60;;;0.60;;
84113;SDS011;74209;48.846;2.358;2023-11-21T05:34:09;0.70;;;0.63;;
84113;SDS011;74209;48.846;2.358;2023-11-21T05:36:34;0.50;;;0.50;;
84113;SDS011;74209;48.846;2.358;2023-11-21T05:39:00;0.50;;;0.50;;
84113;SDS011;74209;48.846;2.358;2023-11-21T05:41:25;0.65;;;0.50;;
84113;SDS011;74209;48.846;2.358;2023-11-21T05:43:51;0.60;;;0.60;;
84113;SDS011;74209;48.846;2.358;2023-11-21T05:46:19;0.40;;;0.40;;
84113;SDS011;74209;48.846;2.358;2023-11-21T05:48:44;0.60;;;0.60;;
84113;SDS011;74209;48.846;2.358;2023-11-21T05:51:11;0.57;;;0.57;;
84113;SDS011;74209;48.846;2.358;2023-11-21T05:53:38;0.63;;;0.60;;
84113;SDS011;74209;48.846;2.358;2023-11-21T05:56:04;0.60;;;0.60;;
84113;SDS011;74209;48.846;2.358;2023-11-21T05:58:30;0.50;;;0.50;;
84113;SDS011;74209;48.846;2.358;2023-11-21T06:00:56;0.75;;;0.75;;
84113;SDS011;74209;48.846;2.358;2023-11-21T06:03:22;0.50;;;0.50;;
84113;SDS011;74209;48.846;2.358;2023-11-21T06:05:48;0.50;;;0.50;;
84113;SDS011;74209;48.846;2.358;2023-11-21T06:08:13;0.50;;;0.50;;
84113;SDS011;74209;48.846;2.358;2023-11-21T06:10:42;0.60;;;0.60;;
84113;SDS011;74209;48.846;2.358;2023-11-21T06:13:09;0.50;;;0.50;;
84113;SDS011;74209;48.846;2.358;2023-11-21T06:15:35;1.23;;;0.60;;
84113;SDS011;74209;48.846;2.358;2023-11-21T06:18:01;0.60;;;0.50;;
84113;SDS011;74209;48.846;2.358;2023-11-21T06:20:27;0.50;;;0.50;;
84113;SDS011;74209;48.846;2.358;2023-11-21T06:22:52;0.60;;;0.60;;
84113;SDS011;74209;48.846;2.358;2023-11-21T06:25:18;0.70;;;0.50;;
84113;SDS011;74209;48.846;2.358;2023-11-21T06:27:45;0.50;;;0.50;;
84113;SDS011;74209;48.846;2.358;2023-11-21T06:30:12;0.50;;;0.50;;
84113;SDS011;74209;48.846;2.358;2023-11-21T06:32:40;0.50;;;0.50;;
84113;SDS011;74209;48.846;2.358;2023-11-21T06:35:07;0.50;;;0.50;;
84113;SDS011;74209;48.846;2.358;2023-11-21T06:37:36;0.50;;;0.50;;
84113;SDS011;74209;48.846;2.358;2023-11-21T06:40:02;0.50;;;0.50;;
84113;SDS011;74209;48.846;2.358;2023-11-21T06:42:32;0.40;;;0.40;;
84113;SDS011;74209;48.846;2.358;2023-11-21T06:44:58;0.60;;;0.60;;
84113;SDS011;74209;48.846;2.358;2023-11-21T06:47:24;0.40;;;0.40;;
84113;SDS011;74209;48.846;2.358;2023-11-21T06:49:51;0.43;;;0.43;;
84113;SDS011;74209;48.846;2.358;2023-11-21T06:52:17;0.40;;;0.40;;
84113;SDS011;74209;48.846;2.358;2023-11-21T06:54:44;0.40;;;0.40;;
84113;SDS011;74209;48.846;2.358;2023-11-21T06:57:10;0.40;;;0.40;;
84113;SDS011;74209;48.846;2.358;2023-11-21T06:59:36;0.50;;;0.50;;
84113;SDS011;74209;48.846;2.358;2023-11-21T07:02:02;0.50;;;0.50;;
84113;SDS011;74209;48.846;2.358;2023-11-21T07:04:29;0.50;;;0.50;;
84113;SDS011;74209;48.846;2.358;2023-11-21T07:06:55;0.40;;;0.40;;
84113;SDS011;74209;48.846;2.358;2023-11-21T07:09:21;0.40;;;0.40;;
84113;SDS011;74209;48.846;2.358;2023-11-21T07:11:47;0.50;;;0.50;;
84113;SDS011;74209;48.846;2.358;2023-11-21T07:14:14;0.60;;;0.60;;
84113;SDS011;74209;48.846;2.358;2023-11-21T07:16:40;0.43;;;0.43;;
84113;SDS011;74209;48.846;2.358;2023-11-21T07:19:05;0.40;;;0.40;;
84113;SDS011;74209;48.846;2.358;2023-11-21T07:21:35;0.35;;;0.35;;
84113;SDS011;74209;48.846;2.358;2023-11-21T07:24:01;0.40;;;0.40;;
84113;SDS011;74209;48.846;2.358;2023-11-21T07:26:28;0.40;;;0.40;;
84113;SDS011;74209;48.846;2.358;2023-11-21T07:28:54;0.43;;;0.43;;
84113;SDS011;74209;48.846;2.358;2023-11-21T07:31:19;0.35;;;0.35;;
84113;SDS011;74209;48.846;2.358;2023-11-21T07:33:45;0.40;;;0.40;;
84113;SDS011;74209;48.846;2.358;2023-11-21T07:36:14;0.47;;;0.47;;
84113;SDS011;74209;48.846;2.358;2023-11-21T07:38:40;0.52;;;0.50;;
84113;SDS011;74209;48.846;2.358;2023-11-21T07:41:07;0.60;;;0.60;;
84113;SDS011;74209;48.846;2.358;2023-11-21T07:43:34;0.50;;;0.50;;
84113;SDS011;74209;48.846;2.358;2023-11-21T07:46:01;0.50;;;0.50;;
84113;SDS011;74209;48.846;2.358;2023-11-21T07:48:30;0.50;;;0.50;;
84113;SDS011;74209;48.846;2.358;2023-11-21T07:50:57;0.60;;;0.60;;
84113;SDS011;74209;48.846;2.358;2023-11-21T07:53:26;0.40;;;0.40;;
84113;SDS011;74209;48.846;2.358;2023-11-21T07:55:54;0.40;;;0.40;;
84113;SDS011;74209;48.846;2.358;2023-11-21T07:58:20;0.50;;;0.50;;
84113;SDS011;74209;48.846;2.358;2023-11-21T08:00:45;1.08;;;0.50;;
84113;SDS011;74209;48.846;2.358;2023-11-21T08:03:13;1.52;;;0.63;;
84113;SDS011;74209;48.846;2.358;2023-11-21T08:05:39;1.13;;;0.60;;
84113;SDS011;74209;48.846;2.358;2023-11-21T08:08:05;0.80;;;0.65;;
84113;SDS011;74209;48.846;2.358;2023-11-21T08:10:30;0.60;;;0.60;;
84113;SDS011;74209;48.846;2.358;2023-11-21T08:12:56;0.70;;;0.70;;
84113;SDS011;74209;48.846;2.358;2023-11-21T08:15:21;0.60;;;0.60;;
84113;SDS011;74209;48.846;2.358;2023-11-21T08:17:47;0.63;;;0.63;;
84113;SDS011;74209;48.846;2.358;2023-11-21T08:20:13;0.70;;;0.70;;
84113;SDS011;74209;48.846;2.358;2023-11-21T08:22:41;0.70;;;0.70;;
84113;SDS011;74209;48.846;2.358;2023-11-21T08:25:07;0.60;;;0.50;;
84113;SDS011;74209;48.846;2.358;2023-11-21T08:27:34;0.60;;;0.60;;
84113;SDS011;74209;48.846;2.358;2023-11-21T08:29:59;0.65;;;0.57;;
84113;SDS011;74209;48.846;2.358;2023-11-21T08:32:29;0.70;;;0.70;;
84113;SDS011;74209;48.846;2.358;2023-11-21T08:34:58;0.90;;;0.80;;
84113;SDS011;74209;48.846;2.358;2023-11-21T08:37:24;0.77;;;0.73;;
84113;SDS011;74209;48.846;2.358;2023-11-21T08:39:52;0.80;;;0.80;;
84113;SDS011;74209;48.846;2.358;2023-11-21T08:42:18;0.77;;;0.70;;
84113;SDS011;74209;48.846;2.358;2023-11-21T08:44:44;0.80;;;0.80;;
84113;SDS011;74209;48.846;2.358;2023-11-21T08:47:10;0.93;;;0.73;;
84113;SDS011;74209;48.846;2.358;2023-11-21T08:49:36;0.75;;;0.75;;
84113;SDS011;74209;48.846;2.358;2023-11-21T08:52:03;1.67;;;0.70;;
84113;SDS011;74209;48.846;2.358;2023-11-21T08:54:30;0.80;;;0.63;;
84113;SDS011;74209;48.846;2.358;2023-11-21T08:56:56;0.80;;;0.77;;
84113;SDS011;74209;48.846;2.358;2023-11-21T08:59:23;1.88;;;0.98;;
84113;SDS011;74209;48.846;2.358;2023-11-21T09:01:49;1.35;;;0.90;;
84113;SDS011;74209;48.846;2.358;2023-11-21T09:04:15;2.22;;;1.00;;
84113;SDS011;74209;48.846;2.358;2023-11-21T09:06:40;2.08;;;0.80;;
84113;SDS011;74209;48.846;2.358;2023-11-21T09:09:06;3.03;;;0.95;;
84113;SDS011;74209;48.846;2.358;2023-11-21T09:11:33;2.03;;;0.85;;
84113;SDS011;74209;48.846;2.358;2023-11-21T09:13:59;1.25;;;0.82;;
84113;SDS011;74209;48.846;2.358;2023-11-21T09:16:25;1.13;;;0.90;;
84113;SDS011;74209;48.846;2.358;2023-11-21T09:18:51;1.48;;;0.80;;
84113;SDS011;74209;48.846;2.358;2023-11-21T09:21:17;0.70;;;0.70;;
84113;SDS011;74209;48.846;2.358;2023-11-21T09:23:44;2.72;;;1.13;;
84113;SDS011;74209;48.846;2.358;2023-11-21T09:26:09;1.75;;;0.80;;
84113;SDS011;74209;48.846;2.358;2023-11-21T09:28:35;1.40;;;0.90;;
84113;SDS011;74209;48.846;2.358;2023-11-21T09:31:02;1.38;;;0.98;;
84113;SDS011;74209;48.846;2.358;2023-11-21T09:33:29;1.67;;;0.90;;
84113;SDS011;74209;48.846;2.358;2023-11-21T09:35:56;2.08;;;0.80;;
84113;SDS011;74209;48.846;2.358;2023-11-21T09:38:22;4.07;;;1.05;;
84113;SDS011;74209;48.846;2.358;2023-11-21T09:40:48;2.50;;;0.93;;
84113;SDS011;74209;48.846;2.358;2023-11-21T09:43:18;2.20;;;1.08;;
84113;SDS011;74209;48.846;2.358;2023-11-21T09:45:48;2.03;;;1.30;;
84113;SDS011;74209;48.846;2.358;2023-11-21T09:48:21;1.63;;;1.13;;
84113;SDS011;74209;48.846;2.358;2023-11-21T09:50:49;3.58;;;1.25;;
84113;SDS011;74209;48.846;2.358;2023-11-21T09:55:53;1.35;;;0.95;;
84113;SDS011;74209;48.846;2.358;2023-11-21T09:58:19;1.42;;;0.95;;
84113;SDS011;74209;48.846;2.358;2023-11-21T10:00:47;2.15;;;0.90;;
84113;SDS011;74209;48.846;2.358;2023-11-21T10:03:14;1.58;;;0.85;;
84113;SDS011;74209;48.846;2.358;2023-11-21T10:05:44;2.33;;;0.90;;
84113;SDS011;74209;48.846;2.358;2023-11-21T10:08:15;2.72;;;1.05;;
84113;SDS011;74209;48.846;2.358;2023-11-21T10:10:44;1.08;;;0.93;;
84113;SDS011;74209;48.846;2.358;2023-11-21T10:13:13;3.80;;;0.80;;
84113;SDS011;74209;48.846;2.358;2023-11-21T10:15:41;2.13;;;0.90;;
84113;SDS011;74209;48.846;2.358;2023-11-21T10:18:13;1.05;;;0.80;;
84113;SDS011;74209;48.846;2.358;2023-11-21T10:20:40;1.20;;;0.90;;
84113;SDS011;74209;48.846;2.358;2023-11-21T10:23:06;2.42;;;0.98;;
84113;SDS011;74209;48.846;2.358;2023-11-21T10:25:36;1.55;;;0.70;;
84113;SDS011;74209;48.846;2.358;2023-11-21T10:28:02;2.05;;;1.00;;
84113;SDS011;74209;48.846;2.358;2023-11-21T10:30:35;2.90;;;1.00;;
84113;SDS011;74209;48.846;2.358;2023-11-21T10:33:05;0.93;;;0.68;;
84113;SDS011;74209;48.846;2.358;2023-11-21T10:35:47;1.15;;;0.70;;
84113;SDS011;74209;48.846;2.358;2023-11-21T10:38:19;1.67;;;0.80;;
84113;SDS011;74209;48.846;2.358;2023-11-21T10:40:49;2.50;;;0.93;;
84113;SDS011;74209;48.846;2.358;2023-11-21T10:43:15;1.40;;;0.88;;
84113;SDS011;74209;48.846;2.358;2023-11-21T10:45:42;1.67;;;0.70;;
84113;SDS011;74209;48.846;2.358;2023-11-21T10:48:14;0.90;;;0.80;;
84113;SDS011;74209;48.846;2.358;2023-11-21T10:50:40;4.00;;;0.90;;
84113;SDS011;74209;48.846;2.358;2023-11-21T10:53:06;0.93;;;0.65;;
84113;SDS011;74209;48.846;2.358;2023-11-21T10:55:33;1.58;;;0.70;;
84113;SDS011;74209;48.846;2.358;2023-11-21T10:58:00;1.00;;;0.77;;
84113;SDS011;74209;48.846;2.358;2023-11-21T11:00:27;3.47;;;0.90;;
84113;SDS011;74209;48.846;2.358;2023-11-21T11:02:54;1.42;;;0.70;;
84113;SDS011;74209;48.846;2.358;2023-11-21T11:05:21;1.83;;;0.90;;
84113;SDS011;74209;48.846;2.358;2023-11-21T11:07:50;0.75;;;0.68;;
84113;SDS011;74209;48.846;2.358;2023-11-21T11:10:25;1.13;;;0.73;;
84113;SDS011;74209;48.846;2.358;2023-11-21T11:12:53;0.82;;;0.68;;
84113;SDS011;74209;48.846;2.358;2023-11-21T11:15:19;2.03;;;0.80;;
84113;SDS011;74209;48.846;2.358;2023-11-21T11:17:45;0.60;;;0.60;;
84113;SDS011;74209;48.846;2.358;2023-11-21T11:20:12;0.85;;;0.70;;
84113;SDS011;74209;48.846;2.358;2023-11-21T11:28:11;3.70;;;0.57;;
84113;SDS011;74209;48.846;2.358;2023-11-21T11:36:04;0.95;;;0.70;;
84113;SDS011;74209;48.846;2.358;2023-11-21T11:38:36;1.33;;;0.60;;
84113;SDS011;74209;48.846;2.358;2023-11-21T11:41:03;0.95;;;0.70;;
84113;SDS011;74209;48.846;2.358;2023-11-21T11:43:30;0.50;;;0.50;;
84113;SDS011;74209;48.846;2.358;2023-11-21T11:45:58;1.38;;;0.80;;
84113;SDS011;74209;48.846;2.358;2023-11-21T11:48:25;0.90;;;0.73;;
84113;SDS011;74209;48.846;2.358;2023-11-21T11:53:39;0.90;;;0.70;;
84113;SDS011;74209;48.846;2.358;2023-11-21T11:58:56;0.70;;;0.70;;
84113;SDS011;74209;48.846;2.358;2023-11-21T12:01:23;0.80;;;0.80;;
84113;SDS011;74209;48.846;2.358;2023-11-21T12:06:56;0.93;;;0.80;;
84113;SDS011;74209;48.846;2.358;2023-11-21T12:09:25;0.75;;;0.60;;
84113;SDS011;74209;48.846;2.358;2023-11-21T12:11:51;0.82;;;0.82;;
84113;SDS011;74209;48.846;2.358;2023-11-21T12:14:18;0.70;;;0.70;;
84113;SDS011;74209;48.846;2.358;2023-11-21T12:16:44;0.68;;;0.68;;
84113;SDS011;74209;48.846;2.358;2023-11-21T12:19:11;0.95;;;0.70;;
84113;SDS011;74209;48.846;2.358;2023-11-21T12:21:37;0.50;;;0.50;;
84113;SDS011;74209;48.846;2.358;2023-11-21T12:24:22;0.70;;;0.70;;
84113;SDS011;74209;48.846;2.358;2023-11-21T12:26:48;0.60;;;0.60;;
84113;SDS011;74209;48.846;2.358;2023-11-21T12:29:33;0.45;;;0.45;;
84113;SDS011;74209;48.846;2.358;2023-11-21T12:31:59;4.38;;;1.10;;
84113;SDS011;74209;48.846;2.358;2023-11-21T12:34:24;4.43;;;0.90;;
84113;SDS011;74209;48.846;2.358;2023-11-21T12:36:50;3.08;;;0.90;;
84113;SDS011;74209;48.846;2.358;2023-11-21T12:39:17;6.68;;;1.30;;
84113;SDS011;74209;48.846;2.358;2023-11-21T12:41:43;4.03;;;0.80;;
84113;SDS011;74209;48.846;2.358;2023-11-21T12:44:11;2.33;;;0.80;;
84113;SDS011;74209;48.846;2.358;2023-11-21T12:46:40;2.63;;;0.82;;
84113;SDS011;74209;48.846;2.358;2023-11-21T12:49:07;3.10;;;0.88;;
84113;SDS011;74209;48.846;2.358;2023-11-21T12:51:33;2.45;;;1.00;;
84113;SDS011;74209;48.846;2.358;2023-11-21T12:53:59;3.10;;;0.98;;
84113;SDS011;74209;48.846;2.358;2023-11-21T12:56:24;1.88;;;0.93;;
84113;SDS011;74209;48.846;2.358;2023-11-21T12:58:50;3.67;;;0.90;;
84113;SDS011;74209;48.846;2.358;2023-11-21T13:01:19;2.50;;;0.98;;
84113;SDS011;74209;48.846;2.358;2023-11-21T13:03:47;2.63;;;1.05;;
84113;SDS011;74209;48.846;2.358;2023-11-21T13:06:14;1.33;;;0.80;;
84113;SDS011;74209;48.846;2.358;2023-11-21T13:08:41;1.30;;;0.80;;
84113;SDS011;74209;48.846;2.358;2023-11-21T13:11:06;1.40;;;0.73;;
84113;SDS011;74209;48.846;2.358;2023-11-21T13:13:32;2.35;;;0.80;;
84113;SDS011;74209;48.846;2.358;2023-11-21T13:15:59;1.70;;;0.70;;
84113;SDS011;74209;48.846;2.358;2023-11-21T13:18:26;0.90;;;0.63;;
84113;SDS011;74209;48.846;2.358;2023-11-21T13:20:57;2.80;;;0.70;;
84113;SDS011;74209;48.846;2.358;2023-11-21T13:23:37;0.80;;;0.77;;
84113;SDS011;74209;48.846;2.358;2023-11-21T13:26:03;2.00;;;0.80;;
84113;SDS011;74209;48.846;2.358;2023-11-21T13:28:29;0.98;;;0.88;;
84113;SDS011;74209;48.846;2.358;2023-11-21T13:30:58;1.35;;;0.82;;
84113;SDS011;74209;48.846;2.358;2023-11-21T13:33:29;1.42;;;0.80;;
84113;SDS011;74209;48.846;2.358;2023-11-21T13:35:55;0.77;;;0.60;;
84113;SDS011;74209;48.846;2.358;2023-11-21T13:38:21;0.90;;;0.70;;
84113;SDS011;74209;48.846;2.358;2023-11-21T13:40:50;2.30;;;0.60;;
84113;SDS011;74209;48.846;2.358;2023-11-21T13:43:19;0.40;;;0.40;;
84113;SDS011;74209;48.846;2.358;2023-11-21T13:45:47;0.90;;;0.65;;
84113;SDS011;74209;48.846;2.358;2023-11-21T13:48:24;0.80;;;0.60;;
84113;SDS011;74209;48.846;2.358;2023-11-21T13:50:56;1.25;;;0.70;;
84113;SDS011;74209;48.846;2.358;2023-11-21T13:53:33;0.95;;;0.70;;
84113;SDS011;74209;48.846;2.358;2023-11-21T13:56:02;0.70;;;0.60;;
84113;SDS011;74209;48.846;2.358;2023-11-21T13:58:29;0.68;;;0.68;;
84113;SDS011;74209;48.846;2.358;2023-11-21T14:01:15;1.00;;;0.60;;
84113;SDS011;74209;48.846;2.358;2023-11-21T14:03:59;0.60;;;0.50;;
84113;SDS011;74209;48.846;2.358;2023-11-21T14:06:41;0.50;;;0.50;;
84113;SDS011;74209;48.846;2.358;2023-11-21T14:09:19;1.23;;;0.70;;
84113;SDS011;74209;48.846;2.358;2023-11-21T14:12:00;0.90;;;0.70;;
84113;SDS011;74209;48.846;2.358;2023-11-21T14:14:30;1.15;;;0.60;;
84113;SDS011;74209;48.846;2.358;2023-11-21T14:16:56;0.68;;;0.68;;
84113;SDS011;74209;48.846;2.358;2023-11-21T14:19:23;0.85;;;0.60;;
84113;SDS011;74209;48.846;2.358;2023-11-21T14:21:55;0.70;;;0.70;;
84113;SDS011;74209;48.846;2.358;2023-11-21T14:24:21;0.60;;;0.60;;
84113;SDS011;74209;48.846;2.358;2023-11-21T14:26:48;0.45;;;0.45;;
84113;SDS011;74209;48.846;2.358;2023-11-21T14:29:17;1.02;;;0.57;;
84113;SDS011;74209;48.846;2.358;2023-11-21T14:31:48;0.95;;;0.60;;
84113;SDS011;74209;48.846;2.358;2023-11-21T14:34:16;0.60;;;0.60;;
84113;SDS011;74209;48.846;2.358;2023-11-21T14:36:43;0.75;;;0.55;;
84113;SDS011;74209;48.846;2.358;2023-11-21T14:39:09;0.70;;;0.70;;
84113;SDS011;74209;48.846;2.358;2023-11-21T14:41:47;0.70;;;0.70;;
84113;SDS011;74209;48.846;2.358;2023-11-21T14:44:13;1.50;;;0.70;;
84113;SDS011;74209;48.846;2.358;2023-11-21T14:46:40;0.63;;;0.63;;
84113;SDS011;74209;48.846;2.358;2023-11-21T14:49:11;0.93;;;0.60;;
84113;SDS011;74209;48.846;2.358;2023-11-21T14:51:47;1.63;;;0.50;;
84113;SDS011;74209;48.846;2.358;2023-11-21T14:54:25;0.43;;;0.43;;
84113;SDS011;74209;48.846;2.358;2023-11-21T14:57:11;0.68;;;0.50;;
84113;SDS011;74209;48.846;2.358;2023-11-21T14:59:43;0.50;;;0.50;;
84113;SDS011;74209;48.846;2.358;2023-11-21T15:02:15;0.68;;;0.68;;
84113;SDS011;74209;48.846;2.358;2023-11-21T15:04:46;0.55;;;0.50;;
84113;SDS011;74209;48.846;2.358;2023-11-21T15:07:12;0.70;;;0.63;;
84113;SDS011;74209;48.846;2.358;2023-11-21T15:09:38;0.55;;;0.52;;
84113;SDS011;74209;48.846;2.358;2023-11-21T15:12:07;0.60;;;0.60;;